Time;durP1;ratioP1;P1;durP2;ratioP2;P2;SDS_P1;SDS_P2;PMS_P1;PMS_P2;Temp;Humidity;BMP_temperature;BMP_pressure;BME280_temperature;BME280_humidity;BME280_pressure;Samples;Min_cycle;Max_cycle;Signal;HPM_P1;HPM_P2
2023/03/14 00:01:35;;;;;;;5.20;0.55;;;;;;;;;;5281487;28;20021;-73
2023/03/14 00:04:06;;;;;;;3.08;0.40;;;;;;;;;;5282342;28;20027;-74
2023/03/14 00:06:38;;;;;;;5.93;0.60;;;;;;;;;;5281113;28;20013;-74
2023/03/14 00:09:09;;;;;;;5.53;0.60;;;;;;;;;;5282225;28;20020;-74
2023/03/14 00:11:40;;;;;;;3.92;0.40;;;;;;;;;;5281893;28;20017;-74
2023/03/14 00:14:11;;;;;;;3.83;0.40;;;;;;;;;;5281764;28;20102;-73
2023/03/14 00:16:45;;;;;;;4.93;0.50;;;;;;;;;;5281782;28;20979;-73
2023/03/14 00:19:16;;;;;;;2.00;0.73;;;;;;;;;;5282039;28;20035;-73
2023/03/14 00:21:47;;;;;;;6.25;1.05;;;;;;;;;;5281173;28;20415;-73
2023/03/14 00:24:19;;;;;;;3.53;0.38;;;;;;;;;;5282358;28;20057;-73
2023/03/14 00:26:50;;;;;;;4.07;0.40;;;;;;;;;;5281846;28;20012;-73
2023/03/14 00:29:21;;;;;;;3.88;0.45;;;;;;;;;;5281317;28;20032;-74
2023/03/14 00:31:53;;;;;;;4.03;0.30;;;;;;;;;;5282166;28;20020;-74
2023/03/14 00:34:28;;;;;;;4.40;0.50;;;;;;;;;;5285374;28;20082;-75
2023/03/14 00:36:59;;;;;;;3.70;0.40;;;;;;;;;;5286401;28;20020;-74
2023/03/14 00:39:30;;;;;;;3.67;0.38;;;;;;;;;;5285843;28;20390;-74
2023/03/14 00:42:01;;;;;;;2.28;0.32;;;;;;;;;;5285559;28;20482;-74
2023/03/14 00:44:33;;;;;;;3.60;0.70;;;;;;;;;;5285593;28;20017;-73
2023/03/14 00:47:04;;;;;;;3.10;0.75;;;;;;;;;;5286511;28;20051;-73
2023/03/14 00:49:35;;;;;;;4.40;0.55;;;;;;;;;;5284646;28;20063;-73
2023/03/14 00:52:07;;;;;;;3.85;0.40;;;;;;;;;;5286152;28;20036;-73
2023/03/14 00:54:38;;;;;;;6.03;0.52;;;;;;;;;;5285529;28;20864;-74
2023/03/14 00:57:09;;;;;;;2.10;0.50;;;;;;;;;;5285214;28;20027;-73
2023/03/14 00:59:40;;;;;;;3.53;0.40;;;;;;;;;;5285520;28;20464;-73
2023/03/14 01:02:11;;;;;;;3.17;0.30;;;;;;;;;;5286105;28;20009;-73
2023/03/14 01:04:43;;;;;;;4.70;0.40;;;;;;;;;;5284734;28;20119;-75
2023/03/14 01:07:14;;;;;;;3.00;0.40;;;;;;;;;;5285921;28;20024;-73
2023/03/14 01:09:45;;;;;;;2.28;0.30;;;;;;;;;;5284604;28;20025;-73
2023/03/14 01:12:16;;;;;;;5.03;0.60;;;;;;;;;;5285848;28;20077;-73
2023/03/14 01:14:47;;;;;;;2.25;0.20;;;;;;;;;;5285504;28;20048;-72
2023/03/14 01:17:19;;;;;;;2.70;0.35;;;;;;;;;;5287154;28;20027;-73
2023/03/14 01:19:50;;;;;;;4.30;0.50;;;;;;;;;;5285295;28;20020;-73
2023/03/14 01:22:21;;;;;;;3.90;0.40;;;;;;;;;;5285577;28;20012;-73
2023/03/14 01:24:52;;;;;;;3.80;0.30;;;;;;;;;;5284465;28;20387;-74
2023/03/14 01:27:23;;;;;;;4.78;0.40;;;;;;;;;;5285139;28;20017;-73
2023/03/14 01:29:55;;;;;;;3.38;0.32;;;;;;;;;;5285280;28;20021;-73
2023/03/14 01:32:26;;;;;;;4.00;0.30;;;;;;;;;;5283840;28;20073;-73
2023/03/14 01:34:57;;;;;;;3.28;0.30;;;;;;;;;;5285360;28;20479;-73
2023/03/14 01:37:28;;;;;;;2.50;0.30;;;;;;;;;;5284501;28;20024;-74
2023/03/14 01:39:59;;;;;;;1.80;0.40;;;;;;;;;;5284418;28;20051;-73
2023/03/14 01:42:31;;;;;;;3.28;0.60;;;;;;;;;;5284444;28;20024;-73
2023/03/14 01:45:02;;;;;;;3.15;0.50;;;;;;;;;;5284225;28;20074;-74
2023/03/14 01:47:33;;;;;;;1.77;0.22;;;;;;;;;;5284645;28;20016;-73
2023/03/14 01:50:07;;;;;;;4.15;0.40;;;;;;;;;;5285019;28;20110;-73
2023/03/14 01:52:44;;;;;;;3.58;0.52;;;;;;;;;;5283460;28;20282;-73
2023/03/14 01:55:17;;;;;;;5.88;0.50;;;;;;;;;;5284729;28;20008;-73
2023/03/14 01:57:58;;;;;;;5.13;0.50;;;;;;;;;;5284111;28;20070;-73
2023/03/14 02:00:29;;;;;;;1.95;0.30;;;;;;;;;;5283240;28;20017;-74
2023/03/14 02:03:05;;;;;;;4.55;0.60;;;;;;;;;;5284965;28;20020;-73
2023/03/14 02:05:38;;;;;;;3.55;0.70;;;;;;;;;;5284146;28;20017;-73
2023/03/14 02:08:11;;;;;;;5.80;0.73;;;;;;;;;;5284184;28;20417;-74
2023/03/14 02:10:44;;;;;;;3.45;0.40;;;;;;;;;;5284164;28;20013;-73
2023/03/14 02:13:16;;;;;;;4.78;0.77;;;;;;;;;;5284070;28;20032;-73
2023/03/14 02:15:48;;;;;;;7.38;0.60;;;;;;;;;;5286147;28;20013;-73
2023/03/14 02:18:19;;;;;;;8.27;0.50;;;;;;;;;;5284462;28;20017;-74
2023/03/14 02:20:51;;;;;;;6.00;0.77;;;;;;;;;;5283394;28;20009;-74
2023/03/14 02:23:30;;;;;;;7.45;0.70;;;;;;;;;;5284132;28;20025;-74
2023/03/14 02:26:01;;;;;;;;;;;;;;;;;;5284685;28;20262;-74
2023/03/14 02:28:32;;;;;;;6.85;0.40;;;;;;;;;;5282781;28;19904;-74
2023/03/14 02:31:03;;;;;;;6.93;0.70;;;;;;;;;;5284394;28;20761;-74
2023/03/14 02:33:37;;;;;;;6.85;0.50;;;;;;;;;;5283329;28;20120;-74
2023/03/14 02:36:11;;;;;;;5.95;0.80;;;;;;;;;;5283370;28;20419;-73
2023/03/14 02:38:45;;;;;;;5.80;0.60;;;;;;;;;;5283439;28;20036;-74
2023/03/14 02:41:16;;;;;;;7.38;0.70;;;;;;;;;;5283142;28;20033;-74
2023/03/14 02:43:47;;;;;;;4.32;0.60;;;;;;;;;;5283301;28;20031;-74
2023/03/14 02:46:20;;;;;;;5.50;0.55;;;;;;;;;;5284034;28;20494;-72
2023/03/14 02:48:53;;;;;;;5.30;0.60;;;;;;;;;;5282733;28;20042;-73
2023/03/14 02:51:25;;;;;;;7.28;0.60;;;;;;;;;;5282853;28;20131;-73
2023/03/14 02:53:56;;;;;;;7.05;0.82;;;;;;;;;;5283829;28;20032;-73
2023/03/14 02:56:28;;;;;;;6.55;0.57;;;;;;;;;;5281963;28;20020;-73
2023/03/14 02:59:01;;;;;;;4.15;0.50;;;;;;;;;;5283605;28;20027;-73
2023/03/14 03:01:33;;;;;;;7.25;0.75;;;;;;;;;;5282923;28;20044;-74
2023/03/14 03:04:04;;;;;;;5.47;0.60;;;;;;;;;;5282677;28;20079;-73
2023/03/14 03:06:36;;;;;;;7.65;0.40;;;;;;;;;;5283011;28;20027;-73
2023/03/14 03:09:07;;;;;;;6.03;0.60;;;;;;;;;;5282601;28;20021;-74
2023/03/14 03:11:38;;;;;;;5.43;0.60;;;;;;;;;;5282817;28;20566;-73
2023/03/14 03:14:09;;;;;;;7.22;0.85;;;;;;;;;;5283137;28;20079;-74
2023/03/14 03:16:40;;;;;;;6.85;0.73;;;;;;;;;;5281924;28;20016;-73
2023/03/14 03:19:13;;;;;;;7.32;0.57;;;;;;;;;;5282899;28;20024;-73
2023/03/14 03:21:44;;;;;;;4.05;0.50;;;;;;;;;;5282647;28;20027;-73
2023/03/14 03:24:15;;;;;;;3.05;0.50;;;;;;;;;;5282288;28;20024;-73
2023/03/14 03:26:46;;;;;;;6.60;0.60;;;;;;;;;;5282561;28;20383;-73
2023/03/14 03:29:18;;;;;;;5.28;0.40;;;;;;;;;;5282984;28;20109;-73
2023/03/14 03:31:49;;;;;;;5.95;0.50;;;;;;;;;;5281523;28;20017;-73
2023/03/14 03:34:20;;;;;;;5.20;0.50;;;;;;;;;;5282608;28;20471;-73
2023/03/14 03:36:51;;;;;;;4.75;0.60;;;;;;;;;;5282574;28;20019;-74
2023/03/14 03:39:23;;;;;;;5.95;0.73;;;;;;;;;;5282126;28;20095;-74
2023/03/14 03:41:54;;;;;;;4.53;0.50;;;;;;;;;;5282691;28;20021;-73
2023/03/14 03:44:25;;;;;;;4.43;0.40;;;;;;;;;;5281344;28;20024;-74
2023/03/14 03:46:56;;;;;;;5.40;0.40;;;;;;;;;;5282876;28;20095;-74
2023/03/14 03:49:31;;;;;;;4.00;0.40;;;;;;;;;;5282214;28;20039;-74
2023/03/14 03:52:02;;;;;;;3.35;0.40;;;;;;;;;;5281661;28;20515;-74
2023/03/14 03:54:33;;;;;;;4.28;0.40;;;;;;;;;;5282103;28;20033;-74
2023/03/14 03:57:05;;;;;;;5.10;0.40;;;;;;;;;;5282563;28;20020;-74
2023/03/14 03:59:36;;;;;;;6.82;0.50;;;;;;;;;;5281459;28;20091;-74
2023/03/14 04:02:07;;;;;;;2.58;0.25;;;;;;;;;;5282464;28;20100;-74
2023/03/14 04:04:38;;;;;;;3.67;0.30;;;;;;;;;;5281882;28;20027;-73
2023/03/14 04:07:10;;;;;;;3.47;0.50;;;;;;;;;;5281009;28;20028;-73
2023/03/14 04:09:41;;;;;;;3.42;0.47;;;;;;;;;;5282423;28;20486;-74
2023/03/14 04:12:13;;;;;;;5.10;0.50;;;;;;;;;;5282554;28;20541;-74
2023/03/14 04:14:45;;;;;;;4.20;0.55;;;;;;;;;;5280880;28;20094;-74
2023/03/14 04:17:16;;;;;;;3.63;0.30;;;;;;;;;;5282355;28;20494;-73
2023/03/14 04:19:49;;;;;;;4.00;0.60;;;;;;;;;;5281163;28;20040;-74
2023/03/14 04:22:20;;;;;;;3.42;0.40;;;;;;;;;;5281886;28;20070;-73
2023/03/14 04:24:51;;;;;;;4.93;0.55;;;;;;;;;;5281909;28;20024;-73
2023/03/14 04:27:23;;;;;;;3.47;0.30;;;;;;;;;;5281092;28;20021;-73
2023/03/14 04:29:54;;;;;;;3.70;0.30;;;;;;;;;;5282120;28;20051;-73
2023/03/14 04:32:25;;;;;;;3.45;0.50;;;;;;;;;;5281545;28;20346;-73
2023/03/14 04:34:56;;;;;;;1.58;0.20;;;;;;;;;;5281469;28;20021;-74
2023/03/14 04:37:27;;;;;;;3.95;0.40;;;;;;;;;;5281687;28;20016;-74
2023/03/14 04:39:59;;;;;;;3.55;0.40;;;;;;;;;;5281971;28;20024;-73
2023/03/14 04:42:30;;;;;;;1.55;0.20;;;;;;;;;;5280950;28;20016;-73
2023/03/14 04:45:01;;;;;;;1.38;0.10;;;;;;;;;;5281850;28;20032;-73
2023/03/14 04:47:32;;;;;;;1.73;0.20;;;;;;;;;;5280599;28;20459;-73
2023/03/14 04:50:04;;;;;;;2.35;0.35;;;;;;;;;;5281650;28;20571;-73
2023/03/14 04:52:35;;;;;;;3.45;0.30;;;;;;;;;;5281525;28;20078;-73
2023/03/14 04:55:06;;;;;;;2.50;0.20;;;;;;;;;;5281223;28;20060;-72
2023/03/14 04:57:37;;;;;;;3.28;0.20;;;;;;;;;;5281521;28;20017;-73
2023/03/14 05:00:09;;;;;;;2.38;0.30;;;;;;;;;;5281816;28;20024;-72
2023/03/14 05:02:40;;;;;;;2.47;0.20;;;;;;;;;;5280833;28;20395;-73
2023/03/14 05:05:11;;;;;;;1.80;0.30;;;;;;;;;;5282285;28;20028;-73
2023/03/14 05:07:43;;;;;;;2.67;0.30;;;;;;;;;;5281639;28;20547;-72
2023/03/14 05:10:14;;;;;;;1.92;0.20;;;;;;;;;;5280947;28;20013;-73
2023/03/14 05:12:45;;;;;;;1.95;0.20;;;;;;;;;;5281092;28;20505;-73
2023/03/14 05:15:17;;;;;;;2.65;0.30;;;;;;;;;;5281622;28;20020;-73
2023/03/14 05:17:49;;;;;;;2.40;0.40;;;;;;;;;;5280491;28;20155;-73
2023/03/14 05:20:20;;;;;;;2.42;0.40;;;;;;;;;;5285311;28;20028;-73
2023/03/14 05:22:51;;;;;;;1.73;0.20;;;;;;;;;;5284334;28;20040;-74
2023/03/14 05:25:22;;;;;;;3.50;0.38;;;;;;;;;;5285394;28;20032;-73
2023/03/14 05:27:54;;;;;;;2.08;0.30;;;;;;;;;;5285012;28;20107;-73
2023/03/14 05:30:27;;;;;;;2.88;0.45;;;;;;;;;;5284171;28;20517;-73
2023/03/14 05:32:58;;;;;;;1.63;0.40;;;;;;;;;;5284960;28;20029;-73
2023/03/14 05:35:30;;;;;;;1.27;0.30;;;;;;;;;;5284405;28;20399;-74
2023/03/14 05:38:01;;;;;;;2.55;0.32;;;;;;;;;;5284039;28;20095;-74
2023/03/14 05:40:33;;;;;;;3.75;1.15;;;;;;;;;;5284499;28;20028;-74
2023/03/14 05:43:07;;;;;;;2.50;0.40;;;;;;;;;;5284943;28;20085;-73
2023/03/14 05:45:38;;;;;;;3.10;0.40;;;;;;;;;;5283391;28;20052;-72
2023/03/14 05:48:10;;;;;;;2.40;0.50;;;;;;;;;;5284770;28;20063;-72
2023/03/14 05:50:41;;;;;;;3.50;0.40;;;;;;;;;;5284154;28;20044;-73
2023/03/14 05:53:12;;;;;;;2.75;0.40;;;;;;;;;;5284138;28;20407;-75
2023/03/14 05:55:43;;;;;;;1.35;0.30;;;;;;;;;;5284332;28;20089;-73
2023/03/14 05:58:14;;;;;;;4.40;0.50;;;;;;;;;;5284400;28;20027;-73
2023/03/14 06:00:46;;;;;;;4.60;0.77;;;;;;;;;;5284554;28;20039;-72
2023/03/14 06:03:17;;;;;;;2.67;0.60;;;;;;;;;;5286603;28;20012;-72
2023/03/14 06:05:51;;;;;;;3.33;0.45;;;;;;;;;;5284348;28;20048;-75
2023/03/14 06:08:22;;;;;;;2.13;0.40;;;;;;;;;;5284315;28;20042;-75
2023/03/14 06:10:54;;;;;;;2.15;0.50;;;;;;;;;;5284200;28;20013;-75
2023/03/14 06:13:25;;;;;;;2.97;0.55;;;;;;;;;;5283128;28;20467;-73
2023/03/14 06:15:56;;;;;;;3.33;0.50;;;;;;;;;;5284444;28;20091;-74
2023/03/14 06:18:27;;;;;;;2.88;0.50;;;;;;;;;;5283880;28;20038;-74
2023/03/14 06:20:58;;;;;;;2.95;0.50;;;;;;;;;;5283534;28;20029;-74
2023/03/14 06:23:31;;;;;;;3.10;0.60;;;;;;;;;;5283838;28;20025;-75
2023/03/14 06:26:02;;;;;;;3.13;0.60;;;;;;;;;;5283275;27;20475;-74
2023/03/14 06:28:34;;;;;;;1.67;0.50;;;;;;;;;;5283384;28;20109;-74
2023/03/14 06:31:05;;;;;;;2.70;0.60;;;;;;;;;;5283150;28;20483;-74
2023/03/14 06:33:36;;;;;;;3.05;0.60;;;;;;;;;;5282607;28;20042;-73
2023/03/14 06:36:08;;;;;;;1.23;0.40;;;;;;;;;;5283826;28;20028;-74
2023/03/14 06:38:39;;;;;;;2.17;0.55;;;;;;;;;;5283234;28;20024;-73
2023/03/14 06:41:10;;;;;;;2.78;0.80;;;;;;;;;;5283321;28;20043;-73
2023/03/14 06:43:41;;;;;;;2.65;0.60;;;;;;;;;;5283333;28;20032;-73
2023/03/14 06:46:12;;;;;;;2.35;0.60;;;;;;;;;;5283788;28;20033;-74
2023/03/14 06:48:44;;;;;;;3.25;0.70;;;;;;;;;;5282390;28;20498;-74
2023/03/14 06:51:15;;;;;;;3.63;0.90;;;;;;;;;;5283317;28;20094;-74
2023/03/14 06:53:46;;;;;;;2.22;0.70;;;;;;;;;;5283269;28;20059;-74
2023/03/14 06:56:17;;;;;;;1.65;0.60;;;;;;;;;;5282937;28;20070;-74
2023/03/14 06:58:48;;;;;;;2.65;1.00;;;;;;;;;;5282880;28;20025;-73
2023/03/14 07:01:22;;;;;;;4.22;0.90;;;;;;;;;;5282195;28;20027;-74
2023/03/14 07:03:53;;;;;;;2.65;0.90;;;;;;;;;;5282894;28;20024;-73
2023/03/14 07:06:25;;;;;;;2.33;0.70;;;;;;;;;;5283017;28;20464;-73
2023/03/14 07:08:56;;;;;;;3.28;0.70;;;;;;;;;;5282563;28;20115;-73
2023/03/14 07:11:27;;;;;;;2.38;0.70;;;;;;;;;;5282711;28;20028;-73
2023/03/14 07:13:59;;;;;;;4.00;0.85;;;;;;;;;;5282853;28;20387;-73
2023/03/14 07:16:32;;;;;;;2.90;0.77;;;;;;;;;;5281655;28;20059;-73
2023/03/14 07:19:04;;;;;;;3.10;0.90;;;;;;;;;;5282980;28;20034;-73
2023/03/14 07:21:35;;;;;;;5.53;1.05;;;;;;;;;;5282475;28;20099;-72
2023/03/14 07:24:06;;;;;;;3.75;0.90;;;;;;;;;;5282104;28;20081;-72
2023/03/14 07:26:37;;;;;;;3.17;0.80;;;;;;;;;;5282282;28;20015;-71
2023/03/14 07:29:08;;;;;;;2.17;0.70;;;;;;;;;;5282712;28;20027;-70
2023/03/14 07:31:40;;;;;;;1.85;0.40;;;;;;;;;;5281599;28;20418;-70
2023/03/14 07:34:11;;;;;;;0.63;0.20;;;;;;;;;;5282868;28;20040;-71
2023/03/14 07:36:42;;;;;;;0.75;0.20;;;;;;;;;;5281470;28;20016;-71
2023/03/14 07:39:13;;;;;;;0.52;0.10;;;;;;;;;;5282574;28;20020;-71
2023/03/14 07:41:44;;;;;;;0.30;0.10;;;;;;;;;;5281850;28;20016;-71
2023/03/14 07:44:16;;;;;;;1.10;0.20;;;;;;;;;;5281714;28;20541;-71
2023/03/14 07:46:47;;;;;;;0.93;0.10;;;;;;;;;;5281993;28;20498;-71
2023/03/14 07:49:18;;;;;;;0.75;0.10;;;;;;;;;;5282541;28;20029;-71
2023/03/14 07:51:50;;;;;;;0.30;0.00;;;;;;;;;;5280810;28;20130;-72
2023/03/14 07:54:21;;;;;;;0.60;0.05;;;;;;;;;;5282382;28;20463;-71
2023/03/14 07:56:52;;;;;;;0.60;0.10;;;;;;;;;;5282319;28;20031;-72
2023/03/14 07:59:23;;;;;;;0.57;0.10;;;;;;;;;;5281726;28;20024;-72
2023/03/14 08:01:54;;;;;;;1.25;0.30;;;;;;;;;;5281879;28;20149;-73
2023/03/14 08:04:27;;;;;;;1.73;0.20;;;;;;;;;;5281867;28;20087;-72
2023/03/14 08:06:58;;;;;;;1.25;0.28;;;;;;;;;;5281755;28;20035;-73
2023/03/14 08:09:29;;;;;;;1.48;0.60;;;;;;;;;;5281716;28;20459;-72
2023/03/14 08:12:00;;;;;;;1.33;0.30;;;;;;;;;;5281435;28;20100;-72
2023/03/14 08:14:32;;;;;;;1.30;0.30;;;;;;;;;;5281516;28;20039;-72
2023/03/14 08:17:05;;;;;;;0.80;0.20;;;;;;;;;;5278111;28;20039;-71
2023/03/14 08:19:36;;;;;;;1.15;0.17;;;;;;;;;;5280876;28;20418;-71
2023/03/14 08:22:07;;;;;;;0.65;0.30;;;;;;;;;;5282081;28;20151;-72
2023/03/14 08:24:38;;;;;;;0.60;0.17;;;;;;;;;;5281524;28;20030;-72
2023/03/14 08:27:09;;;;;;;0.93;0.20;;;;;;;;;;5280871;28;20020;-72
2023/03/14 08:29:41;;;;;;;0.70;0.13;;;;;;;;;;5281316;28;20016;-72
2023/03/14 08:32:12;;;;;;;1.15;0.20;;;;;;;;;;5281043;28;20452;-71
2023/03/14 08:34:44;;;;;;;0.82;0.10;;;;;;;;;;5279395;28;20096;-72
2023/03/14 08:37:15;;;;;;;1.65;0.10;;;;;;;;;;5281410;28;20448;-72
2023/03/14 08:39:46;;;;;;;1.95;0.20;;;;;;;;;;5280642;28;20441;-71
2023/03/14 08:42:17;;;;;;;1.10;0.10;;;;;;;;;;5280597;28;20021;-71
2023/03/14 08:44:50;;;;;;;1.60;0.20;;;;;;;;;;5280164;28;20086;-74
2023/03/14 08:47:21;;;;;;;1.65;0.20;;;;;;;;;;5280164;28;20047;-74
2023/03/14 08:49:52;;;;;;;1.33;0.30;;;;;;;;;;5280780;28;20070;-74
2023/03/14 08:52:23;;;;;;;1.45;0.20;;;;;;;;;;5282223;28;20040;-73
2023/03/14 08:54:54;;;;;;;2.65;0.30;;;;;;;;;;5286150;28;20114;-73
2023/03/14 08:57:29;;;;;;;1.17;0.20;;;;;;;;;;5286805;28;20112;-74
2023/03/14 09:00:00;;;;;;;3.08;0.30;;;;;;;;;;5285511;28;20129;-74
2023/03/14 09:02:31;;;;;;;1.83;0.20;;;;;;;;;;5284313;28;20447;-74
2023/03/14 09:05:02;;;;;;;1.40;0.30;;;;;;;;;;5285801;28;20028;-74
2023/03/14 09:07:34;;;;;;;1.73;0.30;;;;;;;;;;5285332;28;20028;-74
2023/03/14 09:10:06;;;;;;;1.63;0.40;;;;;;;;;;5284597;28;20016;-74
2023/03/14 09:12:37;;;;;;;4.00;0.30;;;;;;;;;;5285096;28;20070;-74
2023/03/14 09:15:09;;;;;;;1.30;0.30;;;;;;;;;;5285073;28;20468;-74
2023/03/14 09:17:42;;;;;;;1.48;0.28;;;;;;;;;;5285223;28;20396;-74
2023/03/14 09:20:14;;;;;;;1.77;0.57;;;;;;;;;;5285281;28;20111;-74
2023/03/14 09:22:45;;;;;;;1.73;0.20;;;;;;;;;;5284258;28;20379;-74
2023/03/14 09:25:16;;;;;;;1.13;0.20;;;;;;;;;;5285437;28;20017;-74
2023/03/14 09:27:47;;;;;;;1.27;0.20;;;;;;;;;;5284654;28;20020;-73
2023/03/14 09:30:18;;;;;;;1.77;0.25;;;;;;;;;;5284308;28;20017;-73
2023/03/14 09:32:50;;;;;;;1.52;0.28;;;;;;;;;;5284963;28;20383;-74
2023/03/14 09:35:21;;;;;;;1.77;0.20;;;;;;;;;;5285003;28;20035;-74
2023/03/14 09:37:52;;;;;;;1.10;0.10;;;;;;;;;;5283856;28;20035;-73
2023/03/14 09:40:23;;;;;;;0.88;0.13;;;;;;;;;;5284815;28;20028;-70
2023/03/14 09:42:55;;;;;;;1.17;0.10;;;;;;;;;;5284631;28;20456;-70
2023/03/14 09:45:28;;;;;;;0.90;0.10;;;;;;;;;;5284446;28;20028;-74
2023/03/14 09:48:01;;;;;;;0.68;0.10;;;;;;;;;;5284743;28;20040;-74
2023/03/14 09:50:39;;;;;;;1.05;0.08;;;;;;;;;;5283707;28;20217;-73
2023/03/14 09:53:18;;;;;;;1.52;0.10;;;;;;;;;;5287251;28;20059;-74
2023/03/14 09:55:50;;;;;;;0.93;0.10;;;;;;;;;;5285461;28;20020;-74
2023/03/14 09:58:22;;;;;;;1.25;0.20;;;;;;;;;;5283667;28;20379;-74
2023/03/14 10:00:55;;;;;;;1.27;0.10;;;;;;;;;;5284393;28;20408;-74
2023/03/14 10:03:33;;;;;;;1.13;0.10;;;;;;;;;;5284305;28;20479;-75
2023/03/14 10:06:10;;;;;;;1.42;0.10;;;;;;;;;;5282731;28;20052;-75
2023/03/14 10:08:42;;;;;;;2.25;0.10;;;;;;;;;;5283940;28;20024;-75
2023/03/14 10:11:17;;;;;;;1.00;0.03;;;;;;;;;;5283710;28;20139;-75
2023/03/14 10:14:00;;;;;;;0.82;0.10;;;;;;;;;;5283943;28;20111;-75
2023/03/14 10:16:32;;;;;;;2.63;0.20;;;;;;;;;;5283789;28;20024;-74
2023/03/14 10:19:05;;;;;;;3.42;0.20;;;;;;;;;;5283652;28;20086;-75
2023/03/14 10:21:40;;;;;;;3.13;0.20;;;;;;;;;;5283681;28;20012;-75
2023/03/14 10:24:19;;;;;;;2.30;0.20;;;;;;;;;;5284480;28;20020;-75
2023/03/14 10:26:54;;;;;;;1.38;0.20;;;;;;;;;;5283411;28;20421;-75
2023/03/14 10:29:26;;;;;;;2.22;0.20;;;;;;;;;;5283747;28;20095;-75
2023/03/14 10:32:04;;;;;;;2.10;0.20;;;;;;;;;;5284081;28;20111;-75
2023/03/14 10:34:37;;;;;;;3.25;0.43;;;;;;;;;;5282590;28;20112;-75
2023/03/14 10:37:17;;;;;;;2.70;0.25;;;;;;;;;;5284055;28;20024;-75
2023/03/14 10:39:50;;;;;;;7.32;0.50;;;;;;;;;;5282686;28;20024;-75
2023/03/14 10:42:29;;;;;;;2.47;0.30;;;;;;;;;;5283831;28;20016;-75
2023/03/14 10:45:03;;;;;;;4.45;0.50;;;;;;;;;;5283968;28;20027;-75
2023/03/14 10:47:34;;;;;;;4.13;0.50;;;;;;;;;;5282454;28;20070;-75
2023/03/14 10:50:25;;;;;;;3.34;0.34;;;;;;;;;;5283603;28;20476;-75
2023/03/14 10:52:57;;;;;;;4.82;0.40;;;;;;;;;;5283752;28;20149;-75
2023/03/14 10:55:38;;;;;;;6.00;0.55;;;;;;;;;;5282542;28;20020;-73
2023/03/14 10:58:29;;;;;;;6.70;0.65;;;;;;;;;;5283764;28;20016;-73
2023/03/14 11:01:06;;;;;;;7.40;0.40;;;;;;;;;;5282821;28;20031;-74
2023/03/14 11:03:40;;;;;;;7.80;0.50;;;;;;;;;;5283260;28;20068;-73
2023/03/14 11:06:18;;;;;;;5.90;0.40;;;;;;;;;;5283651;28;20067;-74
2023/03/14 11:08:57;;;;;;;6.30;0.70;;;;;;;;;;5282098;28;20050;-74
2023/03/14 11:11:30;;;;;;;5.00;0.50;;;;;;;;;;5282707;28;20022;-74
2023/03/14 11:14:19;;;;;;;3.92;0.50;;;;;;;;;;5283417;28;20460;-74
2023/03/14 11:16:53;;;;;;;7.05;0.50;;;;;;;;;;5281935;28;20103;-74
2023/03/14 11:19:33;;;;;;;7.53;0.60;;;;;;;;;;5282562;28;20034;-74
2023/03/14 11:22:04;;;;;;;6.22;0.40;;;;;;;;;;5282254;28;20023;-74
2023/03/14 11:24:38;;;;;;;6.76;0.80;;;;;;;;;;5282488;28;20029;-74
2023/03/14 11:27:22;;;;;;;5.97;0.65;;;;;;;;;;5283128;28;20026;-74
2023/03/14 11:30:06;;;;;;;3.95;0.55;;;;;;;;;;5281929;28;20044;-75
2023/03/14 11:32:44;;;;;;;6.70;0.60;;;;;;;;;;5282549;28;20027;-74
2023/03/14 11:35:17;;;;;;;5.72;0.52;;;;;;;;;;5282669;28;20021;-74
2023/03/14 11:37:53;;;;;;;6.47;0.88;;;;;;;;;;5281576;28;20086;-75
2023/03/14 11:40:26;;;;;;;4.85;0.40;;;;;;;;;;5282410;28;20028;-75
2023/03/14 11:43:05;;;;;;;2.60;0.40;;;;;;;;;;5282255;28;20467;-74
2023/03/14 11:45:39;;;;;;;6.50;0.98;;;;;;;;;;5283524;28;20452;-72
2023/03/14 11:48:28;;;;;;;7.45;0.60;;;;;;;;;;5283246;28;20107;-71
2023/03/14 11:51:01;;;;;;;7.15;0.60;;;;;;;;;;5281653;28;20056;-72
2023/03/14 11:53:53;;;;;;;4.82;0.47;;;;;;;;;;5282217;28;20024;-73
2023/03/14 11:56:31;;;;;;;8.30;0.70;;;;;;;;;;5282097;28;20025;-73
2023/03/14 11:59:14;;;;;;;7.25;0.57;;;;;;;;;;5282093;28;20514;-73
2023/03/14 12:01:53;;;;;;;7.65;0.70;;;;;;;;;;5281981;28;20025;-74
2023/03/14 12:04:36;;;;;;;8.63;0.77;;;;;;;;;;5281407;28;20016;-74
2023/03/14 12:07:12;;;;;;;9.55;1.17;;;;;;;;;;5282465;28;20021;-74
2023/03/14 12:09:44;;;;;;;11.75;1.83;;;;;;;;;;5281756;28;20808;-74
2023/03/14 12:12:21;;;;;;;7.70;1.30;;;;;;;;;;5281688;28;20062;-74
2023/03/14 12:14:57;;;;;;;9.25;0.90;;;;;;;;;;5281969;28;20027;-75
2023/03/14 12:17:42;;;;;;;11.73;0.90;;;;;;;;;;5281922;28;20035;-73
2023/03/14 12:20:14;;;;;;;11.25;0.90;;;;;;;;;;5281905;28;20017;-73
2023/03/14 12:22:47;;;;;;;9.90;0.93;;;;;;;;;;5281704;28;20100;-74
2023/03/14 12:25:23;;;;;;;8.57;1.13;;;;;;;;;;5281630;28;20266;-76
2023/03/14 12:27:54;;;;;;;8.38;0.85;;;;;;;;;;5280309;28;20017;-75
2023/03/14 12:30:36;;;;;;;10.70;1.52;;;;;;;;;;5280881;28;20033;-75
2023/03/14 12:33:10;;;;;;;9.85;1.20;;;;;;;;;;5279109;28;20289;-72
2023/03/14 12:35:49;;;;;;;9.32;1.38;;;;;;;;;;5281516;28;20062;-72
2023/03/14 12:38:27;;;;;;;8.27;1.30;;;;;;;;;;5281688;28;20013;-72
2023/03/14 12:41:03;;;;;;;14.82;1.13;;;;;;;;;;5277153;28;20017;-72
2023/03/14 12:43:34;;;;;;;13.57;1.83;;;;;;;;;;5281247;28;20147;-73
2023/03/14 12:46:09;;;;;;;12.43;1.10;;;;;;;;;;5280976;28;20119;-73
2023/03/14 12:48:40;;;;;;;15.32;1.33;;;;;;;;;;5280821;28;20060;-72
2023/03/14 12:51:15;;;;;;;10.45;1.08;;;;;;;;;;5280849;28;20549;-74
2023/03/14 12:53:53;;;;;;;14.93;1.60;;;;;;;;;;5279993;28;20419;-73
2023/03/14 12:56:44;;;;;;;12.48;1.00;;;;;;;;;;5280788;28;20506;-74
2023/03/14 12:59:28;;;;;;;10.10;1.10;;;;;;;;;;5269932;28;20494;-73
2023/03/14 13:02:05;;;;;;;11.57;1.17;;;;;;;;;;5280387;28;20024;-74
2023/03/14 13:04:46;;;;;;;10.52;1.48;;;;;;;;;;5281137;28;20020;-73
2023/03/14 13:07:31;;;;;;;7.95;0.82;;;;;;;;;;5280484;28;20509;-74
2023/03/14 13:10:08;;;;;;;8.52;0.90;;;;;;;;;;5281053;28;20048;-74
2023/03/14 13:12:55;;;;;;;6.03;1.08;;;;;;;;;;5280539;28;20067;-73
2023/03/14 13:15:38;;;;;;;5.57;0.45;;;;;;;;;;5280001;28;20082;-73
2023/03/14 13:18:09;;;;;;;6.00;0.57;;;;;;;;;;5259827;28;20021;-73
2023/03/14 13:20:52;;;;;;;4.93;0.40;;;;;;;;;;5258844;28;20103;-73
2023/03/14 13:23:34;;;;;;;5.50;0.57;;;;;;;;;;5259744;28;20306;-75
2023/03/14 13:26:09;;;;;;;6.68;0.73;;;;;;;;;;5260535;28;20383;-75
2023/03/14 13:28:41;;;;;;;4.72;0.50;;;;;;;;;;5258955;28;20056;-75
2023/03/14 13:31:23;;;;;;;5.05;0.77;;;;;;;;;;5259791;28;20424;-74
2023/03/14 13:34:01;;;;;;;4.22;0.52;;;;;;;;;;5258554;28;20171;-73
2023/03/14 13:36:34;;;;;;;3.57;0.70;;;;;;;;;;5258695;28;20020;-73
2023/03/14 13:39:26;;;;;;;6.20;0.40;;;;;;;;;;5260240;28;20021;-73
2023/03/14 13:41:58;;;;;;;7.35;0.60;;;;;;;;;;5263151;28;20382;-74
2023/03/14 13:44:30;;;;;;;4.55;0.40;;;;;;;;;;5262359;28;20032;-73
2023/03/14 13:47:02;;;;;;;5.00;0.50;;;;;;;;;;5263417;28;20025;-73
2023/03/14 13:49:35;;;;;;;7.13;0.50;;;;;;;;;;5262081;28;20275;-73
2023/03/14 13:52:25;;;;;;;4.22;0.40;;;;;;;;;;5262964;28;20044;-73
2023/03/14 13:54:58;;;;;;;4.88;0.50;;;;;;;;;;5261880;28;20037;-73
2023/03/14 13:57:54;;;;;;;3.53;0.60;;;;;;;;;;5260559;28;20070;-73
2023/03/14 14:00:26;;;;;;;7.15;0.60;;;;;;;;;;5261202;28;20025;-73
2023/03/14 14:02:58;;;;;;;3.15;0.45;;;;;;;;;;5261927;28;20384;-73
2023/03/14 14:05:31;;;;;;;5.18;0.40;;;;;;;;;;5260465;28;20020;-73
2023/03/14 14:08:03;;;;;;;6.07;0.45;;;;;;;;;;5262595;28;20023;-73
2023/03/14 14:10:36;;;;;;;5.30;0.50;;;;;;;;;;5261945;28;20028;-73
2023/03/14 14:13:14;;;;;;;5.18;1.02;;;;;;;;;;5263821;28;20025;-71
2023/03/14 14:15:47;;;;;;;7.50;0.70;;;;;;;;;;5262747;28;20029;-70
2023/03/14 14:18:20;;;;;;;12.07;0.60;;;;;;;;;;5262550;28;20028;-72
2023/03/14 14:20:52;;;;;;;3.58;0.50;;;;;;;;;;5263085;28;20017;-71
2023/03/14 14:23:28;;;;;;;6.03;0.50;;;;;;;;;;5263161;28;20025;-71
2023/03/14 14:25:59;;;;;;;6.05;0.63;;;;;;;;;;5262721;28;20127;-72
2023/03/14 14:28:32;;;;;;;7.15;0.60;;;;;;;;;;5262658;28;20100;-71
2023/03/14 14:31:03;;;;;;;6.45;0.50;;;;;;;;;;5263234;28;20025;-70
2023/03/14 14:33:40;;;;;;;4.60;0.40;;;;;;;;;;5261665;28;20044;-71
2023/03/14 14:36:16;;;;;;;3.53;0.40;;;;;;;;;;5263193;28;20388;-71
2023/03/14 14:39:13;;;;;;;3.47;0.30;;;;;;;;;;5261928;28;20468;-71
2023/03/14 14:41:47;;;;;;;3.50;0.40;;;;;;;;;;5262225;28;20037;-72
2023/03/14 14:44:20;;;;;;;2.38;0.30;;;;;;;;;;5263121;28;20017;-72
2023/03/14 14:46:52;;;;;;;4.70;0.40;;;;;;;;;;5261828;28;20025;-72
2023/03/14 14:49:27;;;;;;;4.32;0.40;;;;;;;;;;5262713;28;20029;-73
2023/03/14 14:52:04;;;;;;;3.92;0.50;;;;;;;;;;5261774;28;20052;-72
2023/03/14 14:54:49;;;;;;;4.13;0.70;;;;;;;;;;5261144;28;20116;-72
2023/03/14 14:57:24;;;;;;;3.10;0.35;;;;;;;;;;5262533;28;20021;-73
2023/03/14 14:59:59;;;;;;;3.88;0.38;;;;;;;;;;5262094;28;20028;-72
2023/03/14 15:02:31;;;;;;;3.30;0.40;;;;;;;;;;5262008;28;20396;-72
2023/03/14 15:05:02;;;;;;;5.07;0.30;;;;;;;;;;5262482;28;20029;-73
2023/03/14 15:07:33;;;;;;;3.90;0.40;;;;;;;;;;5263117;28;20024;-71
2023/03/14 15:10:05;;;;;;;5.96;0.40;;;;;;;;;;5282898;28;20050;-70
2023/03/14 15:12:36;;;;;;;6.03;0.50;;;;;;;;;;5282591;28;20024;-70
2023/03/14 15:15:08;;;;;;;6.60;0.55;;;;;;;;;;5279491;28;20035;-71
2023/03/14 15:17:39;;;;;;;4.60;0.40;;;;;;;;;;5281572;28;20036;-71
2023/03/14 15:20:15;;;;;;;5.88;0.82;;;;;;;;;;5282316;28;20380;-71